METAR AND TAF INFORMATION
METAR FOR KBAD
ADDS - METARS form results

(2311 UTC 22 May 2018)
Data provider http://aviationweather.gov/adds/metars/
 
METAR text: KBAD 222256Z 03003KT 10SM SCT070 BKN140 24/22 A2996 RMK AO2A LTG DSNT S RAB31E42RAB46E53 SLP147 P0000 T02410221
Conditions at: KBAD (BARKSDALE AFB , LA, US) observed 2256 UTC 22 May 2018
Temperature: 24.1°C (75°F)
Dewpoint: 22.1°C (72°F) [RH = 89%]
Pressure (altimeter): 29.96 inches Hg (1014.6 mb)
[Sea-level pressure: 1014.7 mb]
Winds: from the NNE (30 degrees) at 3 MPH (3 knots; 1.6 m/s)
Visibility: 10 or more miles (16+ km)
Ceiling: 14000 feet AGL
Clouds: scattered clouds at 7000 feet AGL
broken clouds at 14000 feet AGL
Weather: no significant weather observed at this time

METAR text: KBAD 222253Z 00000KT 10SM SCT070 SCT090 BKN140 24/22 A2996 RMK AO2A LTG DSNT SE-S RAB31E42RAB46E53 SLP147
Conditions at: KBAD (BARKSDALE AFB , LA, US) observed 2253 UTC 22 May 2018
Temperature: 24.0°C (75°F)
Dewpoint: 22.0°C (72°F) [RH = 89%]
Pressure (altimeter): 29.96 inches Hg (1014.6 mb)
[Sea-level pressure: 1014.7 mb]
Winds: calm
Visibility: 10 or more miles (16+ km)
Ceiling: 14000 feet AGL
Clouds: scattered clouds at 7000 feet AGL
scattered clouds at 9000 feet AGL
broken clouds at 14000 feet AGL
Weather: no significant weather observed at this time

METAR text: KBAD 222246Z 00000KT 10SM -RA SCT070 SCT090 BKN140 24/22 A2995 RMK AO2A LTG DSNT SE-S RAB31E42RAB46 SLP144
Conditions at: KBAD (BARKSDALE AFB , LA, US) observed 2246 UTC 22 May 2018
Temperature: 24.0°C (75°F)
Dewpoint: 22.0°C (72°F) [RH = 89%]
Pressure (altimeter): 29.95 inches Hg (1014.3 mb)
[Sea-level pressure: 1014.4 mb]
Winds: calm
Visibility: 10 or more miles (16+ km)
Ceiling: 14000 feet AGL
Clouds: scattered clouds at 7000 feet AGL
scattered clouds at 9000 feet AGL
broken clouds at 14000 feet AGL
Weather: -RA  (light rain)

METAR text: KBAD 222242Z 12003KT 10SM SCT070 BKN090 BKN140 25/22 A2995 RMK AO2A LTG DSNT SE-S RAB31E42 SLP144
Conditions at: KBAD (BARKSDALE AFB , LA, US) observed 2242 UTC 22 May 2018
Temperature: 25.0°C (77°F)
Dewpoint: 22.0°C (72°F) [RH = 83%]
Pressure (altimeter): 29.95 inches Hg (1014.3 mb)
[Sea-level pressure: 1014.4 mb]
Winds: from the ESE (120 degrees) at 3 MPH (3 knots; 1.6 m/s)
Visibility: 10 or more miles (16+ km)
Ceiling: 9000 feet AGL
Clouds: scattered clouds at 7000 feet AGL
broken clouds at 9000 feet AGL
broken clouds at 14000 feet AGL
Weather: no significant weather observed at this time

METAR text: KBAD 222231Z AUTO 00000KT 10SM -RA FEW065 SCT090 25/20 A2995 RMK AO2 LTG DSNT NW RAB31 SLP144
Conditions at: KBAD (BARKSDALE AFB , LA, US) observed 2231 UTC 22 May 2018
Temperature: 25.0°C (77°F)
Dewpoint: 20.0°C (68°F) [RH = 74%]
Pressure (altimeter): 29.95 inches Hg (1014.3 mb)
[Sea-level pressure: 1014.4 mb]
Winds: calm
Visibility: 10 or more miles (16+ km)
Ceiling: at least 12,000 feet AGL
Clouds: few clouds at 6500 feet AGL
scattered clouds at 9000 feet AGL
Weather: -RA  (light rain)

Forecast for: KBAD (BARKSDALE AFB , LA, US)
Text: TAF AMD KBAD 221830Z 2218/2324 36006KT 9999 BKN100 QNH2999INS
Forecast period: 1800 UTC 22 May 2018 to 0000 UTC 24 May 2018
Forecast type: FROM: standard forecast or significant change
Winds: from the N (360 degrees) at 7 MPH (6 knots; 3.1 m/s)
Visibility: 6 or more miles (10+ km)
Ceiling: 10000 feet AGL
Clouds: broken clouds at 10000 feet AGL
Weather: no significant weather forecast for this period
Forecast for: KBAD (BARKSDALE AFB , LA, US)
Text: TAF AMD KBAD 221830Z 2218/2324 36006KT 9999 BKN100 QNH2999INS
Forecast period: 1800 UTC 22 May 2018 to 0000 UTC 24 May 2018
Forecast type: FROM: standard forecast or significant change
Winds: from the N (360 degrees) at 7 MPH (6 knots; 3.1 m/s)
Visibility: 6 or more miles (10+ km)
Ceiling: 10000 feet AGL
Clouds: broken clouds at 10000 feet AGL
Weather: no significant weather forecast for this period
Forecast for: KBAD (BARKSDALE AFB , LA, US)
Text: TAF AMD KBAD 221830Z 2218/2324 36006KT 9999 BKN100 QNH2999INS
Forecast period: 1800 UTC 22 May 2018 to 0000 UTC 23 May 2018
Forecast type: BECOMING: Conditions expected to become as follows by 1900 UTC 22 May 2018
Winds: variable direction winds at 7 MPH (6 knots; 3.1 m/s)
Visibility: 6 or more miles (10+ km)
Ceiling: 4500 feet AGL
Clouds: broken clouds at 4500 feet AGL
Weather: VCSH  (showers in vicinity)
Forecast for: KBAD (BARKSDALE AFB , LA, US)
Text: TAF AMD KBAD 221830Z 2218/2324 36006KT 9999 BKN100 QNH2999INS
Forecast period: 1800 UTC 22 May 2018 to 0000 UTC 23 May 2018
Forecast type: BECOMING: Conditions expected to become as follows by 1900 UTC 22 May 2018
Winds: variable direction winds at 7 MPH (6 knots; 3.1 m/s)
Visibility: 6 or more miles (10+ km)
Ceiling: 4500 feet AGL
Clouds: broken clouds at 4500 feet AGL
Weather: VCSH  (showers in vicinity)
Forecast for: KBAD (BARKSDALE AFB , LA, US)
Text: TAF AMD KBAD 221830Z 2218/2324 36006KT 9999 BKN100 QNH2999INS
Forecast period: 1900 UTC 22 May 2018 to 0100 UTC 23 May 2018
Forecast type: TEMPORARY: The following changes expected for less than half the time period
Winds: variable direction winds at 17 MPH (15 knots; 7.8 m/s)
gusting to 29 MPH (25 knots; 13.0 m/s)
Visibility: 2.98 miles (4.80 km)
Ceiling: 3500 feet AGL
Clouds: broken clouds at 3500 feet AGL
Weather: -TSRA  (light rain associated with thunderstorm(s))
Forecast for: KBAD (BARKSDALE AFB , LA, US)
Text: TAF AMD KBAD 221830Z 2218/2324 36006KT 9999 BKN100 QNH2999INS
Forecast period: 1900 UTC 22 May 2018 to 0100 UTC 23 May 2018
Forecast type: TEMPORARY: The following changes expected for less than half the time period
Winds: variable direction winds at 17 MPH (15 knots; 7.8 m/s)
gusting to 29 MPH (25 knots; 13.0 m/s)
Visibility: 2.98 miles (4.80 km)
Ceiling: 3500 feet AGL
Clouds: broken clouds at 3500 feet AGL
Weather: -TSRA  (light rain associated with thunderstorm(s))
Forecast for: KBAD (BARKSDALE AFB , LA, US)
Text: TAF AMD KBAD 221830Z 2218/2324 36006KT 9999 BKN100 QNH2999INS
Forecast period: 0000 to 1800 UTC 23 May 2018
Forecast type: BECOMING: Conditions expected to become as follows by 0100 UTC 23 May 2018
Winds: from the E (100 degrees) at 7 MPH (6 knots; 3.1 m/s)
Visibility: 6 or more miles (10+ km)
Ceiling: 4000 feet AGL
Clouds: scattered clouds at 2000 feet AGL
broken clouds at 4000 feet AGL
Weather: NSW  (no significant weather)
Forecast for: KBAD (BARKSDALE AFB , LA, US)
Text: TAF AMD KBAD 221830Z 2218/2324 36006KT 9999 BKN100 QNH2999INS
Forecast period: 0000 to 1800 UTC 23 May 2018
Forecast type: BECOMING: Conditions expected to become as follows by 0100 UTC 23 May 2018
Winds: from the E (100 degrees) at 7 MPH (6 knots; 3.1 m/s)
Visibility: 6 or more miles (10+ km)
Ceiling: 4000 feet AGL
Clouds: scattered clouds at 2000 feet AGL
broken clouds at 4000 feet AGL
Weather: NSW  (no significant weather)
Forecast for: KBAD (BARKSDALE AFB , LA, US)
Text: TAF AMD KBAD 221830Z 2218/2324 36006KT 9999 BKN100 QNH2999INS
Forecast period: 1800 UTC 23 May 2018 to 0000 UTC 24 May 2018
Forecast type: BECOMING: Conditions expected to become as follows by 1900 UTC 23 May 2018
Winds: from the E (80 degrees) at 10 MPH (9 knots; 4.7 m/s)
Visibility: 6 or more miles (10+ km)
Ceiling: 3000 feet AGL
Clouds: scattered clouds at 1500 feet AGL
broken clouds at 3000 feet AGL
Weather: -SHRA  (light rain showers)
Forecast for: KBAD (BARKSDALE AFB , LA, US)
Text: TAF AMD KBAD 221830Z 2218/2324 36006KT 9999 BKN100 QNH2999INS
Forecast period: 1800 UTC 23 May 2018 to 0000 UTC 24 May 2018
Forecast type: BECOMING: Conditions expected to become as follows by 1900 UTC 23 May 2018
Winds: from the E (80 degrees) at 10 MPH (9 knots; 4.7 m/s)
Visibility: 6 or more miles (10+ km)
Ceiling: 3000 feet AGL
Clouds: scattered clouds at 1500 feet AGL
broken clouds at 3000 feet AGL
Weather: -SHRA  (light rain showers)
Forecast for: KBAD (BARKSDALE AFB , LA, US)
Text: TAF AMD KBAD 221830Z 2218/2324 36006KT 9999 BKN100 QNH2999INS
Forecast period: 1900 to 2300 UTC 23 May 2018
Forecast type: TEMPORARY: The following changes expected for less than half the time period
Winds: from the E (90 degrees) at 14 MPH (12 knots; 6.2 m/s)
gusting to 21 MPH (18 knots; 9.4 m/s)
Visibility: 2.98 miles (4.80 km)
Ceiling: 2000 feet AGL
Clouds: overcast cloud deck at 2000 feet AGL
Weather: -TSRA  (light rain associated with thunderstorm(s))
Forecast for: KBAD (BARKSDALE AFB , LA, US)
Text: TAF AMD KBAD 221830Z 2218/2324 36006KT 9999 BKN100 QNH2999INS
Forecast period: 1900 to 2300 UTC 23 May 2018
Forecast type: TEMPORARY: The following changes expected for less than half the time period
Winds: from the E (90 degrees) at 14 MPH (12 knots; 6.2 m/s)
gusting to 21 MPH (18 knots; 9.4 m/s)
Visibility: 2.98 miles (4.80 km)
Ceiling: 2000 feet AGL
Clouds: overcast cloud deck at 2000 feet AGL
Weather: -TSRA  (light rain associated with thunderstorm(s))

 AIRPORT MAP

 RUNWAY INFORMATION
Runway 15 Runway length 11756 ft Runway width 300 ft
Runway elevation 164 ft Runway displaced threshold 0 ft Runway heading 151
Runway 33 Runway length 11756 ft Runway width 300 ft
Runway elevation 162 ft Runway displaced threshold 0 ft Runway heading 331

 AIRPORT FREQUENCIES
Type A/D Name SHREVEPORT Frequency 119.9 MHZ
Type ATIS Name ATIS Frequency 37.58 MHZ
Type GND Name GND Frequency 121.8 MHZ
Type PMSV Name PMSV METRO Frequency 37.362 MHZ
Type POST Name COMD POST Frequency 31.1 MHZ
Type PTD Name PTD Frequency 37.22 MHZ
Type TWR Name TWR Frequency 128.25 MHZ

 AIRPORT NEAR NAVIGATION AIDS
Type TACAN Name Barksdale Frequency 115800 KHZ
Type VORTAC Name Belcher Frequency 117400 KHZ
Type VORTAC Name Elm Grove Frequency 111200 KHZ


... ... ... ... ... ...

© Copyright 2017 All Rights Reserved. Virtual NATO is in no way affiliated with NATO or any of the NATO Members

NATO Virtual is a volunteer not for profit group of friends with the common interest in promoting enjoyment and education through the simulation of military operations and procedure through the use of operating standards within several flight simulation platforms.

Powered by Virtual Airlines Manager [v2.6.2] Customized by Virtual NATO